createdAt,value
2022-12-22T00:01:41.457Z,6.90
2022-12-22T00:04:30.663Z,7.07
2022-12-22T00:07:15.948Z,8.70
2022-12-22T00:10:01.413Z,6.73
2022-12-22T00:12:46.822Z,6.10
2022-12-22T00:15:35.872Z,6.03
2022-12-22T00:18:22.190Z,6.90
2022-12-22T00:21:08.088Z,8.97
2022-12-22T00:23:53.547Z,6.77
2022-12-22T00:26:39.093Z,6.57
2022-12-22T00:29:24.748Z,5.70
2022-12-22T00:32:10.199Z,7.90
2022-12-22T00:35:00.518Z,6.37
2022-12-22T00:37:51.855Z,5.50
2022-12-22T00:40:45.006Z,10.60
2022-12-22T00:43:30.560Z,5.40
2022-12-22T00:46:17.612Z,6.60
2022-12-22T00:49:04.180Z,7.07
2022-12-22T00:51:50.674Z,7.40
2022-12-22T00:54:37.939Z,6.00
2022-12-22T00:57:23.447Z,5.97
2022-12-22T01:00:09.644Z,6.40
2022-12-22T01:02:55.486Z,7.80
2022-12-22T01:05:40.952Z,7.87
2022-12-22T01:08:27.998Z,6.93
2022-12-22T01:11:13.993Z,7.63
2022-12-22T01:13:59.322Z,7.07
2022-12-22T01:16:44.911Z,5.87
2022-12-22T01:19:30.035Z,4.83
2022-12-22T01:22:16.399Z,5.27
2022-12-22T01:25:03.405Z,5.07
2022-12-22T01:27:48.860Z,8.57
2022-12-22T01:30:34.501Z,4.97
2022-12-22T01:33:20.007Z,4.50
2022-12-22T01:36:05.280Z,4.93
2022-12-22T01:38:50.618Z,4.60
2022-12-22T01:41:39.080Z,4.50
2022-12-22T01:44:33.050Z,7.10
2022-12-22T01:47:44.284Z,3.80
2022-12-22T01:50:29.906Z,4.73
2022-12-22T01:53:19.824Z,5.40
2022-12-22T01:56:06.763Z,5.30
2022-12-22T01:59:02.456Z,4.50
2022-12-22T02:01:49.915Z,4.27
2022-12-22T02:04:37.942Z,5.40
2022-12-22T02:07:39.187Z,5.40
2022-12-22T02:10:33.476Z,5.57
2022-12-22T02:13:48.895Z,5.90
2022-12-22T02:17:13.291Z,5.10
2022-12-22T02:19:58.782Z,5.13
2022-12-22T02:23:09.572Z,4.93
2022-12-22T02:26:11.821Z,5.87
2022-12-22T02:28:58.704Z,5.20
2022-12-22T02:31:44.285Z,5.50
2022-12-22T02:34:33.814Z,5.23
2022-12-22T02:37:29.486Z,4.97
2022-12-22T02:40:29.676Z,6.03
2022-12-22T02:43:50.949Z,4.83
2022-12-22T02:46:47.899Z,5.13
2022-12-22T02:49:46.256Z,5.20
2022-12-22T02:52:40.166Z,5.43
2022-12-22T02:55:26.522Z,5.53
2022-12-22T02:58:12.677Z,9.63
2022-12-22T03:00:58.581Z,5.43
2022-12-22T03:03:44.050Z,5.30
2022-12-22T03:06:29.400Z,5.20
2022-12-22T03:09:15.037Z,5.13
2022-12-22T03:12:00.427Z,5.67
2022-12-22T03:14:46.049Z,6.87
2022-12-22T03:17:31.458Z,5.80
2022-12-22T03:20:17.013Z,6.37
2022-12-22T03:23:02.312Z,6.93
2022-12-22T03:25:47.973Z,7.20
2022-12-22T03:28:15.021Z,6.03
2022-12-22T03:30:41.933Z,9.20
2022-12-22T03:33:08.812Z,7.23
2022-12-22T03:35:35.573Z,6.83
2022-12-22T03:38:03.654Z,7.27
2022-12-22T03:40:33.588Z,7.47
2022-12-22T03:43:18.965Z,5.53
2022-12-22T03:46:04.608Z,5.93
2022-12-22T03:48:31.533Z,5.77
2022-12-22T03:50:58.361Z,5.00
2022-12-22T03:53:25.343Z,4.23
2022-12-22T03:55:52.240Z,4.30
2022-12-22T03:58:19.126Z,4.93
2022-12-22T04:00:46.304Z,4.37
2022-12-22T04:03:14.307Z,6.20
2022-12-22T04:05:41.370Z,4.77
2022-12-22T04:08:08.294Z,4.83
2022-12-22T04:10:53.932Z,4.30
2022-12-22T04:13:20.737Z,4.03
2022-12-22T04:15:47.605Z,4.83
2022-12-22T04:18:14.498Z,4.33
2022-12-22T04:20:41.314Z,4.47
2022-12-22T04:23:08.181Z,4.50
2022-12-22T04:25:35.016Z,4.37
2022-12-22T04:28:01.897Z,6.00
2022-12-22T04:30:28.727Z,6.30
2022-12-22T04:32:58.556Z,5.10
2022-12-22T04:35:25.423Z,5.17
2022-12-22T04:37:52.191Z,5.17
2022-12-22T04:40:19.035Z,5.27
2022-12-22T04:42:46.000Z,7.97
2022-12-22T04:45:13.087Z,5.37
2022-12-22T04:47:39.924Z,5.03
2022-12-22T04:50:07.327Z,5.20
2022-12-22T04:52:34.052Z,5.03
2022-12-22T04:55:01.237Z,5.07
2022-12-22T04:57:27.972Z,6.13
2022-12-22T04:59:55.317Z,4.90
2022-12-22T05:02:22.380Z,5.57
2022-12-22T05:04:49.292Z,5.33
2022-12-22T05:07:16.020Z,5.43
2022-12-22T05:09:43.002Z,5.17
2022-12-22T05:12:28.408Z,5.23
2022-12-22T05:14:55.297Z,5.13
2022-12-22T05:17:22.088Z,5.20
2022-12-22T05:19:49.025Z,4.80
2022-12-22T05:22:15.899Z,6.13
2022-12-22T05:24:42.806Z,5.60
2022-12-22T05:27:11.366Z,4.90
2022-12-22T05:29:38.213Z,4.33
2022-12-22T05:32:05.186Z,4.43
2022-12-22T05:34:31.965Z,4.43
2022-12-22T05:36:58.722Z,4.30
2022-12-22T05:39:25.842Z,3.30
2022-12-22T05:41:52.701Z,3.00
2022-12-22T05:44:19.765Z,3.97
2022-12-22T05:46:46.538Z,5.17
2022-12-22T05:49:13.369Z,5.13
2022-12-22T05:51:40.242Z,4.87
2022-12-22T05:54:07.205Z,6.27
2022-12-22T05:56:33.957Z,5.43
2022-12-22T05:59:00.735Z,8.10
2022-12-22T06:01:27.549Z,6.97
2022-12-22T06:03:59.603Z,6.50
2022-12-22T06:06:28.539Z,7.63
2022-12-22T06:08:55.473Z,6.30
2022-12-22T06:11:22.241Z,8.17
2022-12-22T06:13:49.335Z,8.17
2022-12-22T06:16:16.176Z,11.90
2022-12-22T06:18:43.044Z,22.27
2022-12-22T06:21:09.827Z,11.47
2022-12-22T06:23:36.540Z,12.50
2022-12-22T06:26:03.462Z,24.40
2022-12-22T06:28:31.172Z,17.67
2022-12-22T06:30:58.086Z,12.57
2022-12-22T06:33:25.389Z,10.77
2022-12-22T06:35:58.463Z,21.33
2022-12-22T06:38:27.401Z,10.87
2022-12-22T06:40:54.211Z,10.87
2022-12-22T06:43:21.165Z,10.97
2022-12-22T06:45:47.964Z,14.47
2022-12-22T06:48:14.922Z,11.43
2022-12-22T06:50:42.593Z,11.23
2022-12-22T06:53:09.914Z,12.03
2022-12-22T06:55:37.719Z,10.77
2022-12-22T06:58:05.667Z,12.27
2022-12-22T07:00:32.939Z,17.03
2022-12-22T07:03:00.198Z,18.73
2022-12-22T07:05:27.178Z,17.43
2022-12-22T07:07:54.343Z,32.40
2022-12-22T07:10:41.217Z,25.00
2022-12-22T07:13:19.257Z,19.37
2022-12-22T07:15:52.101Z,16.53
2022-12-22T07:18:24.645Z,23.20
2022-12-22T07:20:51.508Z,20.03
2022-12-22T07:23:18.638Z,13.53
2022-12-22T07:25:45.494Z,15.30
2022-12-22T07:28:16.782Z,13.43
2022-12-22T07:30:48.095Z,12.33
2022-12-22T07:33:14.904Z,13.93
2022-12-22T07:35:41.681Z,13.60
2022-12-22T07:38:08.499Z,15.63
2022-12-22T07:40:41.168Z,17.53
2022-12-22T07:43:08.882Z,21.17
2022-12-22T07:45:36.488Z,20.03
2022-12-22T07:48:24.172Z,19.20
2022-12-22T07:50:50.910Z,25.33
2022-12-22T07:53:17.819Z,21.33
2022-12-22T07:55:44.581Z,19.37
2022-12-22T07:58:11.389Z,20.60
2022-12-22T08:00:38.217Z,16.80
2022-12-22T08:03:06.364Z,20.30
2022-12-22T08:05:33.242Z,20.20
2022-12-22T08:08:00.381Z,22.07
2022-12-22T08:10:27.261Z,16.53
2022-12-22T08:12:54.295Z,15.30
2022-12-22T08:15:21.187Z,18.43
2022-12-22T08:17:48.040Z,17.80
2022-12-22T08:20:14.893Z,14.70
2022-12-22T08:22:42.011Z,13.37
2022-12-22T08:25:09.376Z,10.97
2022-12-22T08:27:43.226Z,13.07
2022-12-22T08:30:11.409Z,11.33
2022-12-22T08:32:39.940Z,13.30
2022-12-22T08:35:09.113Z,12.83
2022-12-22T08:37:41.623Z,17.00
2022-12-22T08:40:18.041Z,11.83
2022-12-22T08:42:46.145Z,11.23
2022-12-22T08:45:12.931Z,12.90
2022-12-22T08:47:40.211Z,15.20
2022-12-22T08:50:07.975Z,13.17
2022-12-22T08:52:34.841Z,17.33
2022-12-22T08:55:01.824Z,16.57
2022-12-22T08:57:29.731Z,13.60
2022-12-22T08:59:56.633Z,13.00
2022-12-22T09:02:23.685Z,16.87
2022-12-22T09:04:50.644Z,13.97
2022-12-22T09:07:18.565Z,17.90
2022-12-22T09:09:46.728Z,13.63
2022-12-22T09:12:16.676Z,13.87
2022-12-22T09:14:44.186Z,11.63
2022-12-22T09:17:11.163Z,10.87
2022-12-22T09:19:38.252Z,10.90
2022-12-22T09:22:08.017Z,9.57
2022-12-22T09:24:34.828Z,10.53
2022-12-22T09:27:03.547Z,8.27
2022-12-22T09:29:30.570Z,8.00
2022-12-22T09:31:57.401Z,10.33
2022-12-22T09:34:26.152Z,9.27
2022-12-22T09:36:52.966Z,9.87
2022-12-22T09:39:24.993Z,10.77
2022-12-22T09:41:57.808Z,12.27
2022-12-22T09:44:27.713Z,11.67
2022-12-22T09:46:57.969Z,13.00
2022-12-22T09:49:25.616Z,14.30
2022-12-22T09:52:01.229Z,14.37
2022-12-22T09:54:29.158Z,13.37
2022-12-22T09:56:56.774Z,15.10
2022-12-22T09:59:27.584Z,14.50
2022-12-22T10:02:16.312Z,17.10
2022-12-22T10:05:10.657Z,19.00
2022-12-22T10:07:41.429Z,20.77
2022-12-22T10:10:25.137Z,16.47
2022-12-22T10:12:56.208Z,17.90
2022-12-22T10:15:23.907Z,19.83
2022-12-22T10:18:08.969Z,17.90
2022-12-22T10:20:38.364Z,16.60
2022-12-22T10:23:16.593Z,17.40
2022-12-22T10:28:58.458Z,16.57
2022-12-22T10:31:28.523Z,11.53
2022-12-22T10:34:09.353Z,12.90
2022-12-22T10:36:36.840Z,13.37
2022-12-22T10:39:09.899Z,13.67
2022-12-22T10:41:42.322Z,17.57
2022-12-22T10:44:22.351Z,12.73
2022-12-22T10:46:53.926Z,14.03
2022-12-22T10:49:24.918Z,14.53
2022-12-22T10:52:14.535Z,16.43
2022-12-22T10:54:42.823Z,15.13
2022-12-22T10:57:16.572Z,16.27
2022-12-22T10:59:58.366Z,12.00
2022-12-22T11:02:40.306Z,13.00
2022-12-22T11:05:11.588Z,13.47
2022-12-22T11:07:43.207Z,13.80
2022-12-22T11:10:31.328Z,16.27
2022-12-22T11:13:07.670Z,18.70
2022-12-22T11:15:53.584Z,14.90
2022-12-22T11:18:45.731Z,14.90
2022-12-22T11:21:31.064Z,14.70
2022-12-22T11:24:27.996Z,16.53
2022-12-22T11:27:00.499Z,15.13
2022-12-22T11:29:40.723Z,17.70
2022-12-22T11:32:33.880Z,17.67
2022-12-22T11:35:27.072Z,18.07
2022-12-22T11:38:04.895Z,14.10
2022-12-22T11:40:48.288Z,27.47
2022-12-22T11:43:23.816Z,17.73
2022-12-22T11:45:56.589Z,14.20
2022-12-22T11:48:33.467Z,15.73
2022-12-22T11:51:14.848Z,16.30
2022-12-22T11:54:10.710Z,16.73
2022-12-22T11:56:45.055Z,14.67
2022-12-22T11:59:31.688Z,16.23
2022-12-22T12:02:11.205Z,15.87
2022-12-22T12:05:02.697Z,17.37
2022-12-22T12:07:45.955Z,15.77
2022-12-22T12:10:39.648Z,15.17
2022-12-22T12:13:28.569Z,18.07
2022-12-22T12:16:38.816Z,14.73
2022-12-22T12:19:27.068Z,16.13
2022-12-22T12:22:00.002Z,15.90
2022-12-22T12:24:42.198Z,14.57
2022-12-22T12:27:35.882Z,15.77
2022-12-22T12:30:37.568Z,17.47
2022-12-22T12:33:08.715Z,18.10
2022-12-22T12:35:53.972Z,16.43
2022-12-22T12:39:06.218Z,15.23
2022-12-22T12:41:37.099Z,16.53
2022-12-22T12:44:05.592Z,16.47
2022-12-22T12:46:50.938Z,16.30
2022-12-22T12:49:38.929Z,16.40
2022-12-22T12:52:06.633Z,16.80
2022-12-22T12:54:33.334Z,15.83
2022-12-22T12:57:10.262Z,19.20
2022-12-22T12:59:43.932Z,18.23
2022-12-22T13:02:31.521Z,14.40
2022-12-22T13:05:29.781Z,14.70
2022-12-22T13:08:10.404Z,15.40
2022-12-22T13:10:55.626Z,16.03
2022-12-22T13:13:25.144Z,16.80
2022-12-22T13:16:04.252Z,17.03
2022-12-22T13:18:34.065Z,15.43
2022-12-22T13:24:28.527Z,16.10
2022-12-22T13:27:01.189Z,16.87
2022-12-22T13:29:42.397Z,17.50
2022-12-22T13:32:33.447Z,19.13
2022-12-22T13:35:36.662Z,17.30
2022-12-22T13:38:05.707Z,18.90
2022-12-22T13:40:43.818Z,19.60
2022-12-22T13:43:15.072Z,19.20
2022-12-22T13:45:52.500Z,17.77
2022-12-22T13:48:44.184Z,15.60
2022-12-22T13:51:19.984Z,17.63
2022-12-22T13:54:11.201Z,19.07
2022-12-22T13:56:46.445Z,17.47
2022-12-22T13:59:26.858Z,16.77
2022-12-22T14:02:02.343Z,16.70
2022-12-22T14:04:30.477Z,15.43
2022-12-22T14:06:57.514Z,17.20
2022-12-22T14:09:26.437Z,17.67
2022-12-22T14:12:00.166Z,14.30
2022-12-22T14:14:36.501Z,15.57
2022-12-22T14:17:04.347Z,16.80
2022-12-22T14:19:37.204Z,18.70
2022-12-22T14:22:21.059Z,15.33
2022-12-22T14:24:54.932Z,16.70
2022-12-22T14:27:34.152Z,17.33
2022-12-22T14:30:03.502Z,17.03
2022-12-22T14:32:54.630Z,15.87
2022-12-22T14:35:22.676Z,20.80
2022-12-22T14:38:11.096Z,17.30
2022-12-22T14:40:40.219Z,18.20
2022-12-22T14:43:16.857Z,16.60
2022-12-22T14:45:45.185Z,14.80
2022-12-22T14:48:20.813Z,17.90
2022-12-22T14:50:52.191Z,18.67
2022-12-22T14:53:28.197Z,17.33
2022-12-22T14:55:55.185Z,17.20
2022-12-22T14:58:49.024Z,20.70
2022-12-22T15:01:15.806Z,16.73
2022-12-22T15:03:43.978Z,17.30
2022-12-22T15:06:31.932Z,16.63
2022-12-22T15:09:07.647Z,17.83
2022-12-22T15:11:37.953Z,19.33
2022-12-22T15:14:05.185Z,19.00
2022-12-22T15:16:32.520Z,21.70
2022-12-22T15:18:59.766Z,20.10
2022-12-22T15:21:26.684Z,21.73
2022-12-22T15:23:53.523Z,23.17
2022-12-22T15:26:20.362Z,23.67
2022-12-22T15:28:47.260Z,18.70
2022-12-22T15:31:17.160Z,24.47
2022-12-22T15:33:45.789Z,22.97
2022-12-22T15:36:14.699Z,22.53
2022-12-22T15:38:41.859Z,21.70
2022-12-22T15:41:09.032Z,22.03
2022-12-22T15:46:23.056Z,21.37
2022-12-22T15:48:50.257Z,24.27
2022-12-22T15:51:24.951Z,20.10
2022-12-22T15:53:52.420Z,19.97
2022-12-22T15:56:22.389Z,19.30
2022-12-22T15:58:49.723Z,22.43
2022-12-22T16:01:17.076Z,21.30
2022-12-22T16:03:44.507Z,19.53
2022-12-22T16:06:16.009Z,19.70
2022-12-22T16:08:51.123Z,22.97
2022-12-22T16:11:18.905Z,20.50
2022-12-22T16:13:46.407Z,24.97
2022-12-22T16:16:13.545Z,24.00
2022-12-22T16:18:40.475Z,23.93
2022-12-22T16:21:19.662Z,24.03
2022-12-22T16:23:49.612Z,22.73
2022-12-22T16:26:19.871Z,24.57
2022-12-22T16:28:47.396Z,25.17
2022-12-22T16:31:20.479Z,28.50
2022-12-22T16:33:47.424Z,24.60
2022-12-22T16:36:14.376Z,30.13
2022-12-22T16:38:41.453Z,30.00
2022-12-22T16:41:20.367Z,32.83
2022-12-22T16:43:53.959Z,34.83
2022-12-22T16:46:23.017Z,36.40
2022-12-22T16:48:55.769Z,37.73
2022-12-22T16:51:34.058Z,35.53
2022-12-22T16:54:01.753Z,42.70
2022-12-22T16:56:30.644Z,40.93
2022-12-22T16:58:57.861Z,38.57
2022-12-22T17:01:38.604Z,39.17
2022-12-22T17:04:14.130Z,41.47
2022-12-22T17:06:42.072Z,34.37
2022-12-22T17:09:16.144Z,41.00
2022-12-22T17:11:45.662Z,38.13
2022-12-22T17:14:31.877Z,38.13
2022-12-22T17:16:59.573Z,34.07
2022-12-22T17:19:26.441Z,39.83
2022-12-22T17:21:53.662Z,35.43
2022-12-22T17:24:27.819Z,34.70
2022-12-22T17:26:58.317Z,38.20
2022-12-22T17:29:25.728Z,35.43
2022-12-22T17:31:56.415Z,39.20
2022-12-22T17:34:23.780Z,36.27
2022-12-22T17:36:51.183Z,34.07
2022-12-22T17:39:21.149Z,33.70
2022-12-22T17:41:54.362Z,28.90
2022-12-22T17:44:25.941Z,34.33
2022-12-22T17:46:53.386Z,33.13
2022-12-22T17:49:22.781Z,30.43
2022-12-22T17:51:50.129Z,32.43
2022-12-22T17:54:25.690Z,32.53
2022-12-22T17:57:02.494Z,29.30
2022-12-22T17:59:29.976Z,31.83
2022-12-22T18:01:57.081Z,28.90
2022-12-22T18:04:24.026Z,36.80
2022-12-22T18:06:51.235Z,29.67
2022-12-22T18:09:25.708Z,29.27
2022-12-22T18:11:53.948Z,26.33
2022-12-22T18:14:22.272Z,24.73
2022-12-22T18:16:49.455Z,21.77
2022-12-22T18:19:16.434Z,22.57
2022-12-22T18:21:44.470Z,21.70
2022-12-22T18:24:19.010Z,19.40
2022-12-22T18:26:47.133Z,19.77
2022-12-22T18:29:18.482Z,21.53
2022-12-22T18:31:45.671Z,19.47
2022-12-22T18:34:13.044Z,19.03
2022-12-22T18:36:42.471Z,20.60
2022-12-22T18:39:18.042Z,23.47
2022-12-22T18:41:45.067Z,19.27
2022-12-22T18:44:19.369Z,22.47
2022-12-22T18:46:47.152Z,23.50
2022-12-22T18:49:14.739Z,21.63
2022-12-22T18:51:43.805Z,22.33
2022-12-22T18:54:31.172Z,25.23
2022-12-22T18:56:58.213Z,22.40
2022-12-22T18:59:28.160Z,27.40
2022-12-22T19:02:07.143Z,22.30
2022-12-22T19:04:34.093Z,24.80
2022-12-22T19:07:00.975Z,23.47
2022-12-22T19:09:27.989Z,21.37
2022-12-22T19:11:54.797Z,22.40
2022-12-22T19:14:22.485Z,22.47
2022-12-22T19:16:49.584Z,22.90
2022-12-22T19:19:19.366Z,22.03
2022-12-22T19:21:48.064Z,22.70
2022-12-22T19:24:15.011Z,23.07
2022-12-22T19:26:42.216Z,24.50
2022-12-22T19:29:12.406Z,23.53
2022-12-22T19:31:39.429Z,21.03
2022-12-22T19:34:14.977Z,22.47
2022-12-22T19:36:41.844Z,22.80
2022-12-22T19:39:08.769Z,23.77
2022-12-22T19:41:47.895Z,21.77
2022-12-22T19:44:20.832Z,23.30
2022-12-22T19:46:48.225Z,28.60
2022-12-22T19:49:24.366Z,30.87
2022-12-22T19:51:51.448Z,23.40
2022-12-22T19:54:19.804Z,23.07
2022-12-22T19:56:52.460Z,24.40
2022-12-22T19:59:41.015Z,24.30
2022-12-22T20:02:32.135Z,23.73
2022-12-22T20:04:59.979Z,22.77
2022-12-22T20:07:30.451Z,20.70
2022-12-22T20:09:57.445Z,19.20
2022-12-22T20:12:34.660Z,21.17
2022-12-22T20:15:13.779Z,17.87
2022-12-22T20:17:40.824Z,15.97
2022-12-22T20:20:13.660Z,19.47
2022-12-22T20:22:44.910Z,18.70
2022-12-22T20:25:21.710Z,16.70
2022-12-22T20:27:50.482Z,16.67
2022-12-22T20:30:28.962Z,17.10
2022-12-22T20:32:57.254Z,13.77
2022-12-22T20:35:25.258Z,15.70
2022-12-22T20:37:53.107Z,17.57
2022-12-22T20:40:29.593Z,18.33
2022-12-22T20:42:58.253Z,16.07
2022-12-22T20:45:30.040Z,14.77
2022-12-22T20:47:59.430Z,13.43
2022-12-22T20:50:29.831Z,14.77
2022-12-22T20:52:57.277Z,14.40
2022-12-22T20:55:27.138Z,15.83
2022-12-22T20:57:54.929Z,13.87
2022-12-22T21:00:29.247Z,12.83
2022-12-22T21:02:56.608Z,14.50
2022-12-22T21:05:24.387Z,12.50
2022-12-22T21:07:51.730Z,15.50
2022-12-22T21:10:22.372Z,14.17
2022-12-22T21:12:51.290Z,14.67
2022-12-22T21:15:25.675Z,13.67
2022-12-22T21:17:58.172Z,14.33
2022-12-22T21:20:28.579Z,15.47
2022-12-22T21:22:55.943Z,15.30
2022-12-22T21:25:24.155Z,15.33
2022-12-22T21:27:52.474Z,12.93
2022-12-22T21:30:20.602Z,12.87
2022-12-22T21:32:48.260Z,10.90
2022-12-22T21:35:18.260Z,13.73
2022-12-22T21:37:49.096Z,11.43
2022-12-22T21:40:25.215Z,11.00
2022-12-22T21:42:53.528Z,14.30
2022-12-22T21:45:29.819Z,11.77
2022-12-22T21:48:01.531Z,13.30
2022-12-22T21:50:34.287Z,19.40
2022-12-22T21:53:02.577Z,15.83
2022-12-22T21:55:32.513Z,18.37
2022-12-22T21:58:00.162Z,15.27
2022-12-22T22:00:29.367Z,14.00
2022-12-22T22:02:57.363Z,17.40
2022-12-22T22:05:51.887Z,13.57
2022-12-22T22:08:19.015Z,15.70
2022-12-22T22:10:46.495Z,12.50
2022-12-22T22:13:15.362Z,14.87
2022-12-22T22:15:42.602Z,15.77
2022-12-22T22:18:16.416Z,21.30
2022-12-22T22:20:43.705Z,15.77
2022-12-22T22:23:12.998Z,14.90
2022-12-22T22:25:40.631Z,17.43
2022-12-22T22:28:09.055Z,13.60
2022-12-22T22:30:35.934Z,15.57
2022-12-22T22:33:02.761Z,11.63
2022-12-22T22:35:29.878Z,13.23
2022-12-22T22:37:57.088Z,13.40
2022-12-22T22:40:24.345Z,11.37
2022-12-22T22:42:51.343Z,12.93
2022-12-22T22:45:23.488Z,11.17
2022-12-22T22:47:52.296Z,11.57
2022-12-22T22:50:23.216Z,12.77
2022-12-22T22:52:50.213Z,16.00
2022-12-22T22:55:17.418Z,11.03
2022-12-22T22:57:45.247Z,12.30
2022-12-22T23:00:17.274Z,11.57
2022-12-22T23:02:45.498Z,10.50
2022-12-22T23:05:17.119Z,11.37
2022-12-22T23:07:47.814Z,10.97
2022-12-22T23:10:15.259Z,11.50
2022-12-22T23:12:42.481Z,10.93
2022-12-22T23:15:10.120Z,14.60
2022-12-22T23:17:37.354Z,11.50
2022-12-22T23:20:04.909Z,11.80
2022-12-22T23:22:32.415Z,14.67
2022-12-22T23:25:00.014Z,13.50
2022-12-22T23:27:27.093Z,11.60
2022-12-22T23:29:55.289Z,12.57
2022-12-22T23:32:23.125Z,13.37
2022-12-22T23:34:49.930Z,10.47
2022-12-22T23:37:19.680Z,13.13
2022-12-22T23:39:47.083Z,11.10
2022-12-22T23:42:15.062Z,11.10
2022-12-22T23:44:42.182Z,10.53
2022-12-22T23:47:09.800Z,10.77
2022-12-22T23:49:38.321Z,13.53
2022-12-22T23:52:05.708Z,12.37
2022-12-22T23:54:33.010Z,12.67
2022-12-22T23:57:00.190Z,15.90
2022-12-22T23:59:27.567Z,14.50
